sensor_id;sensor_type;location;lat;lon;timestamp;P1;durP1;ratioP1;P2;durP2;ratioP2
75496;SDS011;64074;47.540;19.072;2023-09-19T00:02:20;13.88;;;6.50;;
75496;SDS011;64074;47.540;19.072;2023-09-19T00:05:28;8.07;;;6.25;;
75496;SDS011;64074;47.540;19.072;2023-09-19T00:08:31;11.40;;;6.68;;
75496;SDS011;64074;47.540;19.072;2023-09-19T00:11:36;16.53;;;6.13;;
75496;SDS011;64074;47.540;19.072;2023-09-19T00:14:41;10.35;;;5.93;;
75496;SDS011;64074;47.540;19.072;2023-09-19T00:17:44;9.30;;;6.18;;
75496;SDS011;64074;47.540;19.072;2023-09-19T00:20:47;11.93;;;6.32;;
75496;SDS011;64074;47.540;19.072;2023-09-19T00:23:52;10.18;;;6.10;;
75496;SDS011;64074;47.540;19.072;2023-09-19T00:26:58;9.33;;;6.00;;
75496;SDS011;64074;47.540;19.072;2023-09-19T00:30:03;16.98;;;6.50;;
75496;SDS011;64074;47.540;19.072;2023-09-19T00:33:07;10.85;;;6.20;;
75496;SDS011;64074;47.540;19.072;2023-09-19T00:36:11;10.85;;;6.35;;
75496;SDS011;64074;47.540;19.072;2023-09-19T00:39:14;9.35;;;6.05;;
75496;SDS011;64074;47.540;19.072;2023-09-19T00:42:21;11.57;;;6.10;;
75496;SDS011;64074;47.540;19.072;2023-09-19T00:45:24;11.73;;;6.47;;
75496;SDS011;64074;47.540;19.072;2023-09-19T00:48:27;14.45;;;7.25;;
75496;SDS011;64074;47.540;19.072;2023-09-19T00:51:31;11.23;;;6.28;;
75496;SDS011;64074;47.540;19.072;2023-09-19T00:54:34;12.23;;;6.55;;
75496;SDS011;64074;47.540;19.072;2023-09-19T00:57:40;11.67;;;6.60;;
75496;SDS011;64074;47.540;19.072;2023-09-19T01:00:43;11.75;;;6.57;;
75496;SDS011;64074;47.540;19.072;2023-09-19T01:03:47;9.93;;;6.63;;
75496;SDS011;64074;47.540;19.072;2023-09-19T01:06:51;10.75;;;6.18;;
75496;SDS011;64074;47.540;19.072;2023-09-19T01:09:57;13.77;;;6.47;;
75496;SDS011;64074;47.540;19.072;2023-09-19T01:13:28;11.57;;;6.97;;
75496;SDS011;64074;47.540;19.072;2023-09-19T01:17:25;14.10;;;6.90;;
75496;SDS011;64074;47.540;19.072;2023-09-19T01:30:35;8.97;;;7.03;;
75496;SDS011;64074;47.540;19.072;2023-09-19T01:34:02;14.00;;;7.47;;
75496;SDS011;64074;47.540;19.072;2023-09-19T01:37:10;10.70;;;7.45;;
75496;SDS011;64074;47.540;19.072;2023-09-19T01:40:14;13.32;;;7.38;;
75496;SDS011;64074;47.540;19.072;2023-09-19T01:43:23;14.38;;;7.00;;
75496;SDS011;64074;47.540;19.072;2023-09-19T01:46:38;11.80;;;7.30;;
75496;SDS011;64074;47.540;19.072;2023-09-19T01:49:59;14.40;;;7.70;;
75496;SDS011;64074;47.540;19.072;2023-09-19T01:53:19;12.98;;;8.10;;
75496;SDS011;64074;47.540;19.072;2023-09-19T01:57:28;13.73;;;7.43;;
75496;SDS011;64074;47.540;19.072;2023-09-19T02:00:26;14.35;;;7.45;;
75496;SDS011;64074;47.540;19.072;2023-09-19T02:03:33;12.03;;;7.53;;
75496;SDS011;64074;47.540;19.072;2023-09-19T02:06:40;10.55;;;7.47;;
75496;SDS011;64074;47.540;19.072;2023-09-19T02:09:44;13.20;;;7.70;;
75496;SDS011;64074;47.540;19.072;2023-09-19T02:12:48;13.85;;;7.97;;
75496;SDS011;64074;47.540;19.072;2023-09-19T02:15:50;16.13;;;8.43;;
75496;SDS011;64074;47.540;19.072;2023-09-19T02:18:54;12.23;;;8.40;;
75496;SDS011;64074;47.540;19.072;2023-09-19T02:21:57;13.90;;;8.05;;
75496;SDS011;64074;47.540;19.072;2023-09-19T02:25:00;15.77;;;8.30;;
75496;SDS011;64074;47.540;19.072;2023-09-19T02:28:07;13.60;;;7.82;;
75496;SDS011;64074;47.540;19.072;2023-09-19T02:31:12;12.98;;;8.00;;
75496;SDS011;64074;47.540;19.072;2023-09-19T02:34:16;16.43;;;8.43;;
75496;SDS011;64074;47.540;19.072;2023-09-19T02:37:19;14.25;;;8.60;;
75496;SDS011;64074;47.540;19.072;2023-09-19T02:40:22;13.52;;;8.55;;
75496;SDS011;64074;47.540;19.072;2023-09-19T02:43:28;18.58;;;9.35;;
75496;SDS011;64074;47.540;19.072;2023-09-19T02:46:35;12.88;;;9.27;;
75496;SDS011;64074;47.540;19.072;2023-09-19T02:49:42;15.30;;;9.50;;
75496;SDS011;64074;47.540;19.072;2023-09-19T02:52:45;14.93;;;9.00;;
75496;SDS011;64074;47.540;19.072;2023-09-19T02:55:51;17.13;;;9.82;;
75496;SDS011;64074;47.540;19.072;2023-09-19T02:58:58;13.40;;;8.60;;
75496;SDS011;64074;47.540;19.072;2023-09-19T03:02:05;14.85;;;9.20;;
75496;SDS011;64074;47.540;19.072;2023-09-19T03:05:09;16.17;;;9.40;;
75496;SDS011;64074;47.540;19.072;2023-09-19T03:08:14;13.35;;;9.27;;
75496;SDS011;64074;47.540;19.072;2023-09-19T03:11:23;13.73;;;8.68;;
75496;SDS011;64074;47.540;19.072;2023-09-19T03:14:31;14.93;;;8.95;;
75496;SDS011;64074;47.540;19.072;2023-09-19T03:17:42;13.60;;;9.18;;
75496;SDS011;64074;47.540;19.072;2023-09-19T03:20:56;20.30;;;9.23;;
75496;SDS011;64074;47.540;19.072;2023-09-19T03:23:59;13.35;;;9.02;;
75496;SDS011;64074;47.540;19.072;2023-09-19T03:27:02;13.32;;;9.35;;
75496;SDS011;64074;47.540;19.072;2023-09-19T03:30:06;15.25;;;9.13;;
75496;SDS011;64074;47.540;19.072;2023-09-19T03:33:17;15.07;;;9.05;;
75496;SDS011;64074;47.540;19.072;2023-09-19T03:36:21;13.47;;;9.23;;
75496;SDS011;64074;47.540;19.072;2023-09-19T03:39:24;13.75;;;8.80;;
75496;SDS011;64074;47.540;19.072;2023-09-19T03:42:27;18.08;;;9.93;;
75496;SDS011;64074;47.540;19.072;2023-09-19T03:45:32;18.42;;;9.02;;
75496;SDS011;64074;47.540;19.072;2023-09-19T03:48:37;15.30;;;9.43;;
75496;SDS011;64074;47.540;19.072;2023-09-19T03:51:41;13.87;;;9.13;;
75496;SDS011;64074;47.540;19.072;2023-09-19T03:54:44;14.23;;;8.90;;
75496;SDS011;64074;47.540;19.072;2023-09-19T03:57:50;15.07;;;9.55;;
75496;SDS011;64074;47.540;19.072;2023-09-19T04:00:57;18.05;;;8.88;;
75496;SDS011;64074;47.540;19.072;2023-09-19T04:04:02;13.13;;;9.27;;
75496;SDS011;64074;47.540;19.072;2023-09-19T04:07:13;20.37;;;9.20;;
75496;SDS011;64074;47.540;19.072;2023-09-19T04:10:17;15.05;;;9.02;;
75496;SDS011;64074;47.540;19.072;2023-09-19T04:13:20;15.13;;;9.25;;
75496;SDS011;64074;47.540;19.072;2023-09-19T04:16:24;13.57;;;8.15;;
75496;SDS011;64074;47.540;19.072;2023-09-19T04:19:27;14.85;;;8.43;;
75496;SDS011;64074;47.540;19.072;2023-09-19T04:22:30;13.43;;;7.00;;
75496;SDS011;64074;47.540;19.072;2023-09-19T04:25:33;14.95;;;7.35;;
75496;SDS011;64074;47.540;19.072;2023-09-19T04:28:40;13.35;;;6.97;;
75496;SDS011;64074;47.540;19.072;2023-09-19T04:31:43;14.93;;;6.07;;
75496;SDS011;64074;47.540;19.072;2023-09-19T04:34:48;8.18;;;5.47;;
75496;SDS011;64074;47.540;19.072;2023-09-19T04:37:54;9.90;;;5.20;;
75496;SDS011;64074;47.540;19.072;2023-09-19T04:40:57;8.48;;;4.60;;
75496;SDS011;64074;47.540;19.072;2023-09-19T04:44:05;8.20;;;3.72;;
75496;SDS011;64074;47.540;19.072;2023-09-19T04:47:08;6.20;;;3.25;;
75496;SDS011;64074;47.540;19.072;2023-09-19T04:50:11;6.55;;;2.80;;
75496;SDS011;64074;47.540;19.072;2023-09-19T04:53:15;4.50;;;2.50;;
75496;SDS011;64074;47.540;19.072;2023-09-19T04:56:20;3.83;;;2.13;;
75496;SDS011;64074;47.540;19.072;2023-09-19T04:59:27;6.22;;;2.20;;
75496;SDS011;64074;47.540;19.072;2023-09-19T05:02:31;3.60;;;1.80;;
75496;SDS011;64074;47.540;19.072;2023-09-19T05:05:34;4.70;;;1.88;;
75496;SDS011;64074;47.540;19.072;2023-09-19T05:08:38;2.73;;;1.53;;
75496;SDS011;64074;47.540;19.072;2023-09-19T05:11:42;3.65;;;1.42;;
75496;SDS011;64074;47.540;19.072;2023-09-19T05:14:46;2.17;;;1.40;;
75496;SDS011;64074;47.540;19.072;2023-09-19T05:17:50;6.57;;;1.63;;
75496;SDS011;64074;47.540;19.072;2023-09-19T05:20:59;3.78;;;0.98;;
75496;SDS011;64074;47.540;19.072;2023-09-19T05:24:05;2.70;;;0.90;;
75496;SDS011;64074;47.540;19.072;2023-09-19T05:27:16;3.47;;;0.90;;
75496;SDS011;64074;47.540;19.072;2023-09-19T05:30:20;3.30;;;0.80;;
75496;SDS011;64074;47.540;19.072;2023-09-19T05:33:23;4.03;;;0.80;;
75496;SDS011;64074;47.540;19.072;2023-09-19T05:36:27;3.70;;;0.80;;
75496;SDS011;64074;47.540;19.072;2023-09-19T05:39:32;2.80;;;0.73;;
75496;SDS011;64074;47.540;19.072;2023-09-19T05:42:36;1.63;;;0.38;;
75496;SDS011;64074;47.540;19.072;2023-09-19T05:45:41;3.85;;;0.52;;
75496;SDS011;64074;47.540;19.072;2023-09-19T05:48:44;3.92;;;0.70;;
75496;SDS011;64074;47.540;19.072;2023-09-19T05:51:53;2.10;;;0.55;;
75496;SDS011;64074;47.540;19.072;2023-09-19T05:54:58;4.63;;;0.77;;
75496;SDS011;64074;47.540;19.072;2023-09-19T05:58:01;6.90;;;0.90;;
75496;SDS011;64074;47.540;19.072;2023-09-19T06:01:07;2.17;;;0.77;;
75496;SDS011;64074;47.540;19.072;2023-09-19T06:04:19;4.82;;;0.60;;
75496;SDS011;64074;47.540;19.072;2023-09-19T06:07:23;2.15;;;0.50;;
75496;SDS011;64074;47.540;19.072;2023-09-19T06:10:29;3.93;;;0.70;;
75496;SDS011;64074;47.540;19.072;2023-09-19T06:13:36;3.90;;;0.60;;
75496;SDS011;64074;47.540;19.072;2023-09-19T06:16:42;3.20;;;0.68;;
75496;SDS011;64074;47.540;19.072;2023-09-19T06:19:46;1.48;;;0.55;;
75496;SDS011;64074;47.540;19.072;2023-09-19T06:22:50;1.45;;;0.70;;
75496;SDS011;64074;47.540;19.072;2023-09-19T06:25:54;0.80;;;0.53;;
75496;SDS011;64074;47.540;19.072;2023-09-19T06:29:03;1.30;;;0.70;;
75496;SDS011;64074;47.540;19.072;2023-09-19T06:32:08;1.13;;;0.70;;
75496;SDS011;64074;47.540;19.072;2023-09-19T06:35:12;1.85;;;0.60;;
75496;SDS011;64074;47.540;19.072;2023-09-19T06:38:17;3.40;;;0.60;;
75496;SDS011;64074;47.540;19.072;2023-09-19T06:41:22;2.53;;;1.20;;
75496;SDS011;64074;47.540;19.072;2023-09-19T06:44:28;3.00;;;0.50;;
75496;SDS011;64074;47.540;19.072;2023-09-19T06:47:32;0.60;;;0.50;;
75496;SDS011;64074;47.540;19.072;2023-09-19T06:50:36;0.85;;;0.57;;
75496;SDS011;64074;47.540;19.072;2023-09-19T06:53:41;3.47;;;0.73;;
75496;SDS011;64074;47.540;19.072;2023-09-19T06:56:46;0.90;;;0.50;;
75496;SDS011;64074;47.540;19.072;2023-09-19T07:03:20;1.83;;;0.70;;
75496;SDS011;64074;47.540;19.072;2023-09-19T07:06:27;0.88;;;0.45;;
75496;SDS011;64074;47.540;19.072;2023-09-19T07:09:33;1.13;;;0.40;;
75496;SDS011;64074;47.540;19.072;2023-09-19T07:12:39;1.43;;;0.30;;
75496;SDS011;64074;47.540;19.072;2023-09-19T07:15:46;0.90;;;0.38;;
75496;SDS011;64074;47.540;19.072;2023-09-19T07:18:49;2.38;;;0.60;;
75496;SDS011;64074;47.540;19.072;2023-09-19T07:21:53;1.25;;;0.40;;
75496;SDS011;64074;47.540;19.072;2023-09-19T07:24:58;1.33;;;0.30;;
75496;SDS011;64074;47.540;19.072;2023-09-19T07:28:02;1.20;;;0.30;;
75496;SDS011;64074;47.540;19.072;2023-09-19T07:31:06;1.08;;;0.50;;
75496;SDS011;64074;47.540;19.072;2023-09-19T07:34:16;0.82;;;0.50;;
75496;SDS011;64074;47.540;19.072;2023-09-19T07:37:20;1.58;;;0.40;;
75496;SDS011;64074;47.540;19.072;2023-09-19T07:40:29;1.73;;;0.50;;
75496;SDS011;64074;47.540;19.072;2023-09-19T07:43:34;0.80;;;0.50;;
75496;SDS011;64074;47.540;19.072;2023-09-19T07:46:45;2.75;;;0.77;;
75496;SDS011;64074;47.540;19.072;2023-09-19T07:49:53;0.90;;;0.60;;
75496;SDS011;64074;47.540;19.072;2023-09-19T07:53:04;4.38;;;0.90;;
75496;SDS011;64074;47.540;19.072;2023-09-19T07:56:18;2.72;;;0.90;;
75496;SDS011;64074;47.540;19.072;2023-09-19T07:59:26;4.90;;;1.30;;
75496;SDS011;64074;47.540;19.072;2023-09-19T08:02:34;4.00;;;1.00;;
75496;SDS011;64074;47.540;19.072;2023-09-19T08:05:43;1.85;;;0.70;;
75496;SDS011;64074;47.540;19.072;2023-09-19T08:08:52;3.90;;;1.05;;
75496;SDS011;64074;47.540;19.072;2023-09-19T08:11:58;5.28;;;1.40;;
75496;SDS011;64074;47.540;19.072;2023-09-19T08:15:06;1.83;;;0.80;;
75496;SDS011;64074;47.540;19.072;2023-09-19T08:18:12;2.63;;;1.40;;
75496;SDS011;64074;47.540;19.072;2023-09-19T08:21:16;3.10;;;0.90;;
75496;SDS011;64074;47.540;19.072;2023-09-19T08:24:19;2.22;;;0.85;;
75496;SDS011;64074;47.540;19.072;2023-09-19T08:27:24;1.83;;;1.00;;
75496;SDS011;64074;47.540;19.072;2023-09-19T08:30:30;1.90;;;0.93;;
75496;SDS011;64074;47.540;19.072;2023-09-19T08:33:35;2.60;;;0.80;;
75496;SDS011;64074;47.540;19.072;2023-09-19T08:36:47;2.85;;;0.80;;
75496;SDS011;64074;47.540;19.072;2023-09-19T08:40:04;2.10;;;0.80;;
75496;SDS011;64074;47.540;19.072;2023-09-19T08:43:25;4.03;;;2.13;;
75496;SDS011;64074;47.540;19.072;2023-09-19T08:46:41;1.67;;;0.90;;
75496;SDS011;64074;47.540;19.072;2023-09-19T08:53:41;1.70;;;1.00;;
75496;SDS011;64074;47.540;19.072;2023-09-19T08:57:00;2.92;;;1.00;;
75496;SDS011;64074;47.540;19.072;2023-09-19T09:00:28;1.75;;;0.80;;
75496;SDS011;64074;47.540;19.072;2023-09-19T09:03:43;3.50;;;1.00;;
75496;SDS011;64074;47.540;19.072;2023-09-19T09:06:56;3.33;;;1.02;;
75496;SDS011;64074;47.540;19.072;2023-09-19T09:10:02;2.83;;;0.80;;
75496;SDS011;64074;47.540;19.072;2023-09-19T09:13:07;1.35;;;0.70;;
75496;SDS011;64074;47.540;19.072;2023-09-19T09:16:13;3.33;;;0.77;;
75496;SDS011;64074;47.540;19.072;2023-09-19T09:19:23;0.87;;;0.50;;
75496;SDS011;64074;47.540;19.072;2023-09-19T09:22:29;3.47;;;0.60;;
75496;SDS011;64074;47.540;19.072;2023-09-19T09:30:01;2.70;;;0.80;;
75496;SDS011;64074;47.540;19.072;2023-09-19T09:33:57;2.60;;;0.90;;
75496;SDS011;64074;47.540;19.072;2023-09-19T09:38:55;4.07;;;1.20;;
75496;SDS011;64074;47.540;19.072;2023-09-19T09:42:45;2.40;;;1.40;;
75496;SDS011;64074;47.540;19.072;2023-09-19T09:46:16;2.17;;;1.23;;
75496;SDS011;64074;47.540;19.072;2023-09-19T10:00:53;4.23;;;1.10;;
75496;SDS011;64074;47.540;19.072;2023-09-19T10:04:26;1.42;;;0.80;;
75496;SDS011;64074;47.540;19.072;2023-09-19T10:07:40;2.40;;;1.10;;
75496;SDS011;64074;47.540;19.072;2023-09-19T10:10:55;4.05;;;1.20;;
75496;SDS011;64074;47.540;19.072;2023-09-19T10:14:15;2.35;;;0.85;;
75496;SDS011;64074;47.540;19.072;2023-09-19T10:17:21;2.37;;;1.10;;
75496;SDS011;64074;47.540;19.072;2023-09-19T10:20:31;3.33;;;1.02;;
75496;SDS011;64074;47.540;19.072;2023-09-19T10:23:35;3.20;;;1.10;;
75496;SDS011;64074;47.540;19.072;2023-09-19T10:26:42;2.70;;;1.02;;
75496;SDS011;64074;47.540;19.072;2023-09-19T10:29:57;2.80;;;1.25;;
75496;SDS011;64074;47.540;19.072;2023-09-19T10:33:03;2.00;;;1.40;;
75496;SDS011;64074;47.540;19.072;2023-09-19T10:36:12;2.53;;;1.38;;
75496;SDS011;64074;47.540;19.072;2023-09-19T10:39:16;3.35;;;1.80;;
75496;SDS011;64074;47.540;19.072;2023-09-19T10:42:24;2.22;;;1.42;;
75496;SDS011;64074;47.540;19.072;2023-09-19T10:45:33;2.80;;;1.80;;
75496;SDS011;64074;47.540;19.072;2023-09-19T10:48:39;5.00;;;2.10;;
75496;SDS011;64074;47.540;19.072;2023-09-19T10:51:49;3.03;;;1.77;;
75496;SDS011;64074;47.540;19.072;2023-09-19T10:55:04;3.22;;;1.80;;
75496;SDS011;64074;47.540;19.072;2023-09-19T10:58:10;2.85;;;1.80;;
75496;SDS011;64074;47.540;19.072;2023-09-19T11:01:22;2.00;;;1.60;;
75496;SDS011;64074;47.540;19.072;2023-09-19T11:05:26;6.37;;;2.20;;
75496;SDS011;64074;47.540;19.072;2023-09-19T11:12:03;2.92;;;1.23;;
75496;SDS011;64074;47.540;19.072;2023-09-19T11:19:06;4.25;;;1.58;;
75496;SDS011;64074;47.540;19.072;2023-09-19T11:22:21;2.43;;;1.33;;
75496;SDS011;64074;47.540;19.072;2023-09-19T11:29:12;3.28;;;1.38;;
75496;SDS011;64074;47.540;19.072;2023-09-19T11:33:15;5.47;;;1.50;;
75496;SDS011;64074;47.540;19.072;2023-09-19T11:36:34;3.05;;;1.30;;
75496;SDS011;64074;47.540;19.072;2023-09-19T11:40:28;2.30;;;1.00;;
75496;SDS011;64074;47.540;19.072;2023-09-19T11:43:30;5.95;;;1.10;;
75496;SDS011;64074;47.540;19.072;2023-09-19T11:46:54;1.92;;;0.85;;
75496;SDS011;64074;47.540;19.072;2023-09-19T11:50:00;2.25;;;0.80;;
75496;SDS011;64074;47.540;19.072;2023-09-19T11:58:51;3.13;;;1.10;;
75496;SDS011;64074;47.540;19.072;2023-09-19T12:02:12;4.63;;;1.60;;
75496;SDS011;64074;47.540;19.072;2023-09-19T12:08:07;4.50;;;1.25;;
75496;SDS011;64074;47.540;19.072;2023-09-19T12:11:16;2.38;;;1.20;;
75496;SDS011;64074;47.540;19.072;2023-09-19T12:14:31;4.13;;;1.20;;
75496;SDS011;64074;47.540;19.072;2023-09-19T12:17:36;3.40;;;1.00;;
75496;SDS011;64074;47.540;19.072;2023-09-19T12:20:43;9.25;;;1.33;;
75496;SDS011;64074;47.540;19.072;2023-09-19T12:23:59;4.13;;;1.95;;
75496;SDS011;64074;47.540;19.072;2023-09-19T12:27:08;2.45;;;1.48;;
75496;SDS011;64074;47.540;19.072;2023-09-19T12:30:12;2.25;;;1.58;;
75496;SDS011;64074;47.540;19.072;2023-09-19T12:33:29;2.23;;;1.70;;
75496;SDS011;64074;47.540;19.072;2023-09-19T12:36:38;4.15;;;2.35;;
75496;SDS011;64074;47.540;19.072;2023-09-19T12:43:50;5.55;;;1.60;;
75496;SDS011;64074;47.540;19.072;2023-09-19T12:46:59;5.43;;;2.20;;
75496;SDS011;64074;47.540;19.072;2023-09-19T12:56:09;3.42;;;1.95;;
75496;SDS011;64074;47.540;19.072;2023-09-19T12:59:29;6.50;;;2.03;;
75496;SDS011;64074;47.540;19.072;2023-09-19T13:03:09;3.80;;;2.25;;
75496;SDS011;64074;47.540;19.072;2023-09-19T13:06:34;2.60;;;2.00;;
75496;SDS011;64074;47.540;19.072;2023-09-19T13:10:06;3.40;;;2.20;;
75496;SDS011;64074;47.540;19.072;2023-09-19T13:13:23;3.90;;;2.47;;
75496;SDS011;64074;47.540;19.072;2023-09-19T13:21:44;4.03;;;2.30;;
75496;SDS011;64074;47.540;19.072;2023-09-19T13:24:53;3.90;;;2.03;;
75496;SDS011;64074;47.540;19.072;2023-09-19T13:27:57;2.30;;;2.00;;
75496;SDS011;64074;47.540;19.072;2023-09-19T13:31:02;2.65;;;2.20;;
75496;SDS011;64074;47.540;19.072;2023-09-19T13:34:06;3.60;;;2.25;;
75496;SDS011;64074;47.540;19.072;2023-09-19T13:37:17;3.47;;;2.30;;
75496;SDS011;64074;47.540;19.072;2023-09-19T13:41:10;4.32;;;2.33;;
75496;SDS011;64074;47.540;19.072;2023-09-19T13:44:25;4.63;;;1.97;;
75496;SDS011;64074;47.540;19.072;2023-09-19T13:47:29;3.20;;;2.10;;
75496;SDS011;64074;47.540;19.072;2023-09-19T13:50:36;3.30;;;2.45;;
75496;SDS011;64074;47.540;19.072;2023-09-19T13:53:45;2.65;;;1.92;;
75496;SDS011;64074;47.540;19.072;2023-09-19T13:56:48;3.38;;;2.30;;
75496;SDS011;64074;47.540;19.072;2023-09-19T13:59:52;5.97;;;2.43;;
75496;SDS011;64074;47.540;19.072;2023-09-19T14:02:57;3.50;;;2.28;;
75496;SDS011;64074;47.540;19.072;2023-09-19T14:06:04;6.32;;;2.75;;
75496;SDS011;64074;47.540;19.072;2023-09-19T14:09:15;3.95;;;2.20;;
75496;SDS011;64074;47.540;19.072;2023-09-19T14:12:24;6.70;;;2.72;;
75496;SDS011;64074;47.540;19.072;2023-09-19T14:15:28;2.93;;;2.27;;
75496;SDS011;64074;47.540;19.072;2023-09-19T14:18:35;8.32;;;2.40;;
75496;SDS011;64074;47.540;19.072;2023-09-19T14:21:39;2.72;;;2.40;;
75496;SDS011;64074;47.540;19.072;2023-09-19T14:24:42;5.63;;;2.17;;
75496;SDS011;64074;47.540;19.072;2023-09-19T14:27:47;5.38;;;2.45;;
75496;SDS011;64074;47.540;19.072;2023-09-19T14:30:51;3.40;;;2.57;;
75496;SDS011;64074;47.540;19.072;2023-09-19T14:33:55;4.75;;;2.25;;
75496;SDS011;64074;47.540;19.072;2023-09-19T14:37:02;3.40;;;2.63;;
75496;SDS011;64074;47.540;19.072;2023-09-19T14:40:06;2.97;;;2.17;;
75496;SDS011;64074;47.540;19.072;2023-09-19T14:43:11;3.35;;;2.45;;
75496;SDS011;64074;47.540;19.072;2023-09-19T14:46:15;3.57;;;3.27;;
75496;SDS011;64074;47.540;19.072;2023-09-19T14:49:18;3.53;;;2.38;;
75496;SDS011;64074;47.540;19.072;2023-09-19T14:52:21;4.45;;;2.60;;
75496;SDS011;64074;47.540;19.072;2023-09-19T14:55:24;3.83;;;2.42;;
75496;SDS011;64074;47.540;19.072;2023-09-19T14:58:32;3.67;;;2.08;;
75496;SDS011;64074;47.540;19.072;2023-09-19T15:01:37;3.80;;;1.80;;
75496;SDS011;64074;47.540;19.072;2023-09-19T15:04:43;2.10;;;1.50;;
75496;SDS011;64074;47.540;19.072;2023-09-19T15:07:49;2.13;;;1.52;;
75496;SDS011;64074;47.540;19.072;2023-09-19T15:10:52;3.88;;;1.80;;
75496;SDS011;64074;47.540;19.072;2023-09-19T15:13:56;2.25;;;1.48;;
75496;SDS011;64074;47.540;19.072;2023-09-19T15:16:59;3.33;;;1.83;;
75496;SDS011;64074;47.540;19.072;2023-09-19T15:20:02;2.33;;;1.40;;
75496;SDS011;64074;47.540;19.072;2023-09-19T15:23:09;3.17;;;1.60;;
75496;SDS011;64074;47.540;19.072;2023-09-19T15:26:15;3.47;;;1.88;;
75496;SDS011;64074;47.540;19.072;2023-09-19T15:29:25;4.68;;;1.60;;
75496;SDS011;64074;47.540;19.072;2023-09-19T15:32:29;3.77;;;1.57;;
75496;SDS011;64074;47.540;19.072;2023-09-19T15:35:33;3.60;;;1.50;;
75496;SDS011;64074;47.540;19.072;2023-09-19T15:42:01;4.50;;;1.60;;
75496;SDS011;64074;47.540;19.072;2023-09-19T15:45:04;3.45;;;1.63;;
75496;SDS011;64074;47.540;19.072;2023-09-19T15:48:09;3.53;;;1.53;;
75496;SDS011;64074;47.540;19.072;2023-09-19T15:51:12;1.95;;;1.35;;
75496;SDS011;64074;47.540;19.072;2023-09-19T15:54:17;3.47;;;1.85;;
75496;SDS011;64074;47.540;19.072;2023-09-19T15:57:23;4.25;;;1.33;;
75496;SDS011;64074;47.540;19.072;2023-09-19T16:00:26;3.70;;;1.27;;
75496;SDS011;64074;47.540;19.072;2023-09-19T16:03:30;2.03;;;1.53;;
75496;SDS011;64074;47.540;19.072;2023-09-19T16:06:34;2.45;;;1.40;;
75496;SDS011;64074;47.540;19.072;2023-09-19T16:09:37;2.45;;;1.60;;
75496;SDS011;64074;47.540;19.072;2023-09-19T16:12:40;4.65;;;1.40;;
75496;SDS011;64074;47.540;19.072;2023-09-19T16:15:43;2.50;;;1.65;;
75496;SDS011;64074;47.540;19.072;2023-09-19T16:18:50;2.87;;;1.90;;
75496;SDS011;64074;47.540;19.072;2023-09-19T16:22:01;4.63;;;2.00;;
75496;SDS011;64074;47.540;19.072;2023-09-19T16:25:04;3.03;;;1.50;;
75496;SDS011;64074;47.540;19.072;2023-09-19T16:28:08;3.63;;;1.73;;
75496;SDS011;64074;47.540;19.072;2023-09-19T16:31:11;2.38;;;1.70;;
75496;SDS011;64074;47.540;19.072;2023-09-19T16:34:14;3.97;;;1.70;;
75496;SDS011;64074;47.540;19.072;2023-09-19T16:37:17;3.85;;;1.67;;
75496;SDS011;64074;47.540;19.072;2023-09-19T16:40:22;3.33;;;1.83;;
75496;SDS011;64074;47.540;19.072;2023-09-19T16:43:27;2.95;;;2.65;;
75496;SDS011;64074;47.540;19.072;2023-09-19T16:46:53;3.38;;;3.00;;
75496;SDS011;64074;47.540;19.072;2023-09-19T16:49:58;3.60;;;2.00;;
75496;SDS011;64074;47.540;19.072;2023-09-19T16:53:12;2.65;;;1.85;;
75496;SDS011;64074;47.540;19.072;2023-09-19T16:56:18;3.75;;;2.00;;
75496;SDS011;64074;47.540;19.072;2023-09-19T16:59:44;3.35;;;1.95;;
75496;SDS011;64074;47.540;19.072;2023-09-19T17:02:48;3.47;;;1.88;;
75496;SDS011;64074;47.540;19.072;2023-09-19T17:05:58;6.83;;;2.00;;
75496;SDS011;64074;47.540;19.072;2023-09-19T17:09:02;2.42;;;1.40;;
75496;SDS011;64074;47.540;19.072;2023-09-19T17:12:06;4.65;;;2.03;;
75496;SDS011;64074;47.540;19.072;2023-09-19T17:15:09;4.22;;;1.88;;
75496;SDS011;64074;47.540;19.072;2023-09-19T17:18:13;3.42;;;1.70;;
75496;SDS011;64074;47.540;19.072;2023-09-19T17:21:17;4.03;;;1.70;;
75496;SDS011;64074;47.540;19.072;2023-09-19T17:24:20;3.13;;;1.77;;
75496;SDS011;64074;47.540;19.072;2023-09-19T17:27:24;4.22;;;2.08;;
75496;SDS011;64074;47.540;19.072;2023-09-19T17:30:27;2.97;;;2.00;;
75496;SDS011;64074;47.540;19.072;2023-09-19T17:33:31;5.72;;;4.35;;
75496;SDS011;64074;47.540;19.072;2023-09-19T17:36:35;6.20;;;4.03;;
75496;SDS011;64074;47.540;19.072;2023-09-19T17:39:39;4.88;;;2.45;;
75496;SDS011;64074;47.540;19.072;2023-09-19T17:42:43;3.92;;;2.35;;
75496;SDS011;64074;47.540;19.072;2023-09-19T17:45:48;4.45;;;2.25;;
75496;SDS011;64074;47.540;19.072;2023-09-19T17:48:58;2.97;;;2.05;;
75496;SDS011;64074;47.540;19.072;2023-09-19T17:52:03;2.03;;;1.60;;
75496;SDS011;64074;47.540;19.072;2023-09-19T17:55:12;4.07;;;1.90;;
75496;SDS011;64074;47.540;19.072;2023-09-19T17:58:16;2.65;;;1.98;;
75496;SDS011;64074;47.540;19.072;2023-09-19T18:01:21;4.15;;;2.10;;
75496;SDS011;64074;47.540;19.072;2023-09-19T18:04:28;3.55;;;2.17;;
75496;SDS011;64074;47.540;19.072;2023-09-19T18:07:33;5.10;;;2.40;;
75496;SDS011;64074;47.540;19.072;2023-09-19T18:10:37;3.35;;;2.05;;
75496;SDS011;64074;47.540;19.072;2023-09-19T18:13:44;6.72;;;2.58;;
75496;SDS011;64074;47.540;19.072;2023-09-19T18:16:52;4.72;;;2.45;;
75496;SDS011;64074;47.540;19.072;2023-09-19T18:19:59;3.83;;;2.35;;
75496;SDS011;64074;47.540;19.072;2023-09-19T18:23:02;5.27;;;2.40;;
75496;SDS011;64074;47.540;19.072;2023-09-19T18:26:06;4.38;;;2.30;;
75496;SDS011;64074;47.540;19.072;2023-09-19T18:29:11;4.07;;;2.47;;
75496;SDS011;64074;47.540;19.072;2023-09-19T18:32:14;5.75;;;2.90;;
75496;SDS011;64074;47.540;19.072;2023-09-19T18:35:18;5.07;;;2.50;;
75496;SDS011;64074;47.540;19.072;2023-09-19T18:38:22;7.00;;;2.70;;
75496;SDS011;64074;47.540;19.072;2023-09-19T18:41:26;4.20;;;2.30;;
75496;SDS011;64074;47.540;19.072;2023-09-19T18:44:30;3.28;;;2.72;;
75496;SDS011;64074;47.540;19.072;2023-09-19T18:47:33;5.53;;;2.88;;
75496;SDS011;64074;47.540;19.072;2023-09-19T18:50:36;4.25;;;2.70;;
75496;SDS011;64074;47.540;19.072;2023-09-19T18:53:40;5.37;;;2.83;;
75496;SDS011;64074;47.540;19.072;2023-09-19T18:56:49;5.15;;;3.60;;
75496;SDS011;64074;47.540;19.072;2023-09-19T18:59:53;6.20;;;3.40;;
75496;SDS011;64074;47.540;19.072;2023-09-19T19:02:56;4.50;;;2.95;;
75496;SDS011;64074;47.540;19.072;2023-09-19T19:06:03;7.20;;;3.08;;
75496;SDS011;64074;47.540;19.072;2023-09-19T19:09:10;4.00;;;2.80;;
75496;SDS011;64074;47.540;19.072;2023-09-19T19:12:15;4.25;;;2.70;;
75496;SDS011;64074;47.540;19.072;2023-09-19T19:15:18;5.35;;;3.22;;
75496;SDS011;64074;47.540;19.072;2023-09-19T19:18:23;5.78;;;2.78;;
75496;SDS011;64074;47.540;19.072;2023-09-19T19:21:32;8.32;;;3.80;;
75496;SDS011;64074;47.540;19.072;2023-09-19T19:24:35;6.27;;;3.10;;
75496;SDS011;64074;47.540;19.072;2023-09-19T19:27:38;4.68;;;3.08;;
75496;SDS011;64074;47.540;19.072;2023-09-19T19:30:44;4.20;;;3.00;;
75496;SDS011;64074;47.540;19.072;2023-09-19T19:33:50;8.48;;;3.58;;
75496;SDS011;64074;47.540;19.072;2023-09-19T19:36:56;5.75;;;3.25;;
75496;SDS011;64074;47.540;19.072;2023-09-19T19:39:59;5.73;;;3.13;;
75496;SDS011;64074;47.540;19.072;2023-09-19T19:43:03;4.63;;;3.13;;
75496;SDS011;64074;47.540;19.072;2023-09-19T19:46:06;6.03;;;3.20;;